Time;durP1;ratioP1;P1;durP2;ratioP2;P2;SDS_P1;SDS_P2;PMS_P1;PMS_P2;Temp;Humidity;BMP_temperature;BMP_pressure;BME280_temperature;BME280_humidity;BME280_pressure;Samples;Min_cycle;Max_cycle;Signal;HPM_P1;HPM_P2
2021/05/12 00:01:15;;;;;;;1.50;0.00;;;;;;;6.37;83.65;90356.44;4939164;28;20038;-88
2021/05/12 00:03:41;;;;;;;0.03;0.00;;;;;;;6.46;82.70;90359.72;4939473;28;20496;-86
2021/05/12 00:06:06;;;;;;;0.10;0.00;;;;;;;6.37;83.73;90362.38;4955598;28;20029;-88
2021/05/12 00:08:31;;;;;;;0.00;0.00;;;;;;;6.27;83.88;90367.16;4955408;28;20015;-87
2021/05/12 00:10:57;;;;;;;0.10;0.00;;;;;;;6.21;84.29;90364.75;4939421;28;20485;-87
2021/05/12 00:13:23;;;;;;;0.00;0.00;;;;;;;6.20;84.29;90362.50;4939380;28;20023;-88
2021/05/12 00:15:48;;;;;;;0.00;0.00;;;;;;;6.19;84.79;90361.75;4955761;28;20133;-88
2021/05/12 00:18:19;;;;;;;1.08;0.00;;;;;;;6.11;84.64;90354.78;4955562;28;20081;-88
2021/05/12 00:20:45;;;;;;;0.43;0.00;;;;;;;6.10;84.83;90352.50;4941164;28;20030;-88
2021/05/12 00:23:40;;;;;;;0.00;0.00;;;;;;;6.17;85.08;90352.75;4939549;28;20034;-87
2021/05/12 00:25:58;;;;;;;0.40;0.00;;;;;;;6.20;85.00;90352.91;4957836;28;20022;-88
2021/05/12 00:28:24;;;;;;;0.00;0.00;;;;;;;6.16;85.53;90354.59;4955576;28;20062;-88
2021/05/12 00:30:49;;;;;;;0.00;0.00;;;;;;;6.18;86.00;90355.06;4939217;28;20030;-87
2021/05/12 00:33:16;;;;;;;0.45;0.00;;;;;;;6.15;86.28;90357.50;4955272;28;20094;-88
2021/05/12 00:35:42;;;;;;;0.13;0.00;;;;;;;6.21;85.83;90359.56;4939888;28;20043;-87
2021/05/12 00:38:07;;;;;;;0.20;0.00;;;;;;;6.23;85.94;90362.63;4971424;28;20109;-88
2021/05/12 00:40:33;;;;;;;0.08;0.00;;;;;;;6.20;86.05;90362.50;4974189;28;20030;-87
2021/05/12 00:42:58;;;;;;;0.10;0.10;;;;;;;6.16;86.00;90361.59;4990430;28;20026;-89
2021/05/12 00:45:23;;;;;;;0.00;0.00;;;;;;;6.21;85.60;90364.00;4974329;28;20038;-88
2021/05/12 00:47:49;;;;;;;0.17;0.00;;;;;;;6.18;85.36;90364.63;5009927;28;20114;-87
2021/05/12 00:50:16;;;;;;;0.10;0.00;;;;;;;6.31;82.93;90357.69;4994239;28;20092;-88
2021/05/12 00:52:42;;;;;;;0.10;0.00;;;;;;;6.19;84.05;90366.91;4994178;28;20401;-88
2021/05/12 00:55:07;;;;;;;0.55;0.10;;;;;;;6.23;84.76;90370.38;5010568;28;20034;-87
2021/05/12 00:57:33;;;;;;;0.00;0.00;;;;;;;6.25;83.45;90356.38;4994418;28;20068;-88
2021/05/12 00:59:59;;;;;;;0.00;0.00;;;;;;;6.34;82.40;90360.41;4978008;28;20033;-87
2021/05/12 01:02:24;;;;;;;0.20;0.08;;;;;;;6.30;82.89;90358.78;4993785;28;20030;-87
2021/05/12 01:04:49;;;;;;;0.85;0.10;;;;;;;6.32;81.90;90359.97;4994083;28;20045;-88
2021/05/12 01:07:15;;;;;;;0.85;0.00;;;;;;;6.28;81.90;90353.16;4993998;28;20026;-87
2021/05/12 01:09:40;;;;;;;0.98;0.10;;;;;;;6.15;82.84;90358.28;4994119;28;20077;-87
2021/05/12 01:12:06;;;;;;;0.00;0.00;;;;;;;6.05;83.51;90361.22;4993628;28;20077;-88
2021/05/12 01:14:32;;;;;;;0.52;0.10;;;;;;;6.04;84.35;90366.69;4977542;28;20018;-87
2021/05/12 01:16:57;;;;;;;0.43;0.00;;;;;;;6.10;83.39;90365.44;4993985;28;20054;-88
2021/05/12 01:19:23;;;;;;;0.00;0.00;;;;;;;6.10;83.69;90365.44;4994065;28;20026;-87
2021/05/12 01:21:48;;;;;;;0.30;0.10;;;;;;;5.98;84.91;90368.72;4993284;28;20058;-87
2021/05/12 01:24:14;;;;;;;0.68;0.10;;;;;;;6.07;83.81;90364.22;5010194;28;20499;-88
2021/05/12 01:26:39;;;;;;;0.90;0.10;;;;;;;6.12;83.69;90364.06;4993542;28;20027;-88
2021/05/12 01:29:05;;;;;;;0.00;0.00;;;;;;;6.00;84.70;90361.38;4993852;28;20045;-87
2021/05/12 01:31:32;;;;;;;0.00;0.00;;;;;;;6.00;84.58;90363.97;4993408;28;20049;-87
2021/05/12 01:33:58;;;;;;;0.00;0.00;;;;;;;5.98;84.35;90366.13;5010073;28;20030;-87
2021/05/12 01:36:23;;;;;;;0.00;0.00;;;;;;;5.99;84.09;90359.88;4993504;28;20030;-88
2021/05/12 01:38:49;;;;;;;0.43;0.00;;;;;;;6.08;84.61;90360.59;4993417;28;20033;-87
2021/05/12 01:41:15;;;;;;;0.00;0.00;;;;;;;6.00;84.73;90358.78;5009261;28;20033;-87
2021/05/12 01:43:41;;;;;;;0.00;0.00;;;;;;;6.05;84.31;90352.69;5022560;23;20046;-85
2021/05/12 01:46:07;;;;;;;0.10;0.05;;;;;;;6.04;84.78;90359.69;4941753;28;20026;-85
2021/05/12 01:48:32;;;;;;;0.10;0.00;;;;;;;6.00;84.42;90358.78;4957379;28;20086;-85
2021/05/12 01:50:58;;;;;;;0.30;0.00;;;;;;;6.13;84.14;90362.22;4957126;28;20103;-85
2021/05/12 01:53:23;;;;;;;0.00;0.00;;;;;;;5.99;84.75;90367.63;4968556;28;20066;-85
2021/05/12 01:55:49;;;;;;;0.15;0.00;;;;;;;6.05;84.66;90363.81;4973832;28;20030;-85
2021/05/12 01:58:15;;;;;;;0.17;0.00;;;;;;;6.03;84.88;90355.59;4972574;28;20065;-85
2021/05/12 02:00:43;;;;;;;0.10;0.00;;;;;;;6.07;84.66;90359.06;4956750;28;20516;-85
2021/05/12 02:03:09;;;;;;;0.08;0.08;;;;;;;6.10;84.44;90357.69;4941239;28;20105;-85
2021/05/12 02:05:36;;;;;;;0.73;0.10;;;;;;;6.04;84.61;90354.50;4957018;28;20369;-86
2021/05/12 02:08:03;;;;;;;0.00;0.00;;;;;;;6.07;84.61;90359.06;4957182;28;20034;-86
2021/05/12 02:10:28;;;;;;;0.00;0.00;;;;;;;6.06;82.96;90357.53;4956713;28;20489;-86
2021/05/12 02:12:54;;;;;;;0.00;0.00;;;;;;;5.99;82.17;90362.47;4972658;28;20023;-86
2021/05/12 02:15:20;;;;;;;0.00;0.00;;;;;;;5.85;84.17;90365.22;4972839;28;20030;-85
2021/05/12 02:17:45;;;;;;;0.00;0.00;;;;;;;6.04;83.35;90364.84;4940742;28;20065;-86
2021/05/12 02:20:12;;;;;;;0.63;0.20;;;;;;;5.90;84.59;90365.06;4972584;28;20038;-85
2021/05/12 02:22:37;;;;;;;1.85;0.20;;;;;;;5.91;85.42;90360.66;4956931;28;20082;-86
2021/05/12 02:25:03;;;;;;;1.17;0.30;;;;;;;5.88;85.06;90371.63;4956432;28;20027;-85
2021/05/12 02:27:29;;;;;;;0.70;0.30;;;;;;;5.95;84.78;90364.91;4971580;28;20045;-86
2021/05/12 02:30:00;;;;;;;0.45;0.20;;;;;;;5.87;84.68;90359.78;4973301;28;20026;-86
2021/05/12 02:32:25;;;;;;;0.15;0.00;;;;;;;5.80;85.15;90365.44;4972139;28;20034;-86
2021/05/12 02:34:51;;;;;;;0.13;0.00;;;;;;;5.83;83.22;90361.44;4973691;28;20393;-86
2021/05/12 02:37:16;;;;;;;0.08;0.00;;;;;;;5.92;83.67;90364.75;4972161;28;20022;-87
2021/05/12 02:39:42;;;;;;;0.00;0.00;;;;;;;5.89;83.78;90362.78;4956078;28;20034;-86
2021/05/12 02:42:07;;;;;;;0.00;0.00;;;;;;;5.87;82.36;90365.69;4955656;28;20508;-86
2021/05/12 02:44:32;;;;;;;0.00;0.00;;;;;;;5.92;82.07;90362.94;4973095;28;20066;-85
2021/05/12 02:46:58;;;;;;;0.10;0.00;;;;;;;5.86;82.51;90360.81;4956462;28;20019;-85
2021/05/12 02:49:23;;;;;;;0.00;0.00;;;;;;;5.64;82.95;90360.00;4956751;28;20469;-86
2021/05/12 02:51:49;;;;;;;0.03;0.00;;;;;;;5.69;82.64;90359.84;4972365;28;20038;-85
2021/05/12 02:54:14;;;;;;;0.08;0.00;;;;;;;5.55;82.92;90359.28;4973639;28;20045;-86
2021/05/12 02:56:39;;;;;;;0.00;0.00;;;;;;;5.49;81.59;90365.69;4973642;28;20077;-86
2021/05/12 02:59:05;;;;;;;0.00;0.00;;;;;;;5.57;80.92;90358.97;4956061;28;20476;-86
2021/05/12 03:01:30;;;;;;;0.08;0.00;;;;;;;5.36;81.08;90358.91;4955671;28;20058;-85
2021/05/12 03:03:56;;;;;;;0.10;0.00;;;;;;;5.36;82.15;90356.31;4971993;28;20029;-85
2021/05/12 03:06:21;;;;;;;0.00;0.00;;;;;;;5.23;82.35;90358.78;4955798;28;20037;-87
2021/05/12 03:08:46;;;;;;;0.00;0.00;;;;;;;5.14;83.22;90370.97;4939824;28;20469;-85
2021/05/12 03:11:12;;;;;;;0.10;0.00;;;;;;;5.16;83.20;90363.66;4954445;28;20022;-85
2021/05/12 03:13:37;;;;;;;0.10;0.00;;;;;;;5.17;82.71;90369.59;4939876;28;20022;-86
2021/05/12 03:16:03;;;;;;;0.10;0.00;;;;;;;5.12;82.87;90365.31;4955761;28;20081;-86
2021/05/12 03:18:28;;;;;;;0.00;0.00;;;;;;;5.23;82.30;90363.19;4971485;28;20468;-85
2021/05/12 03:20:54;;;;;;;0.00;0.00;;;;;;;5.03;84.14;90362.03;4971222;28;20077;-86
2021/05/12 03:23:19;;;;;;;0.00;0.00;;;;;;;5.26;82.28;90360.75;4971484;28;20026;-86
2021/05/12 03:25:45;;;;;;;0.00;0.00;;;;;;;5.00;82.57;90358.22;4955412;28;20027;-86
2021/05/12 03:28:10;;;;;;;0.63;0.00;;;;;;;4.84;82.74;90349.47;4955371;28;20023;-84
2021/05/12 03:30:36;;;;;;;0.38;0.10;;;;;;;4.85;83.75;90347.63;4939210;28;20023;-86
2021/05/12 03:33:03;;;;;;;0.00;0.00;;;;;;;4.79;83.93;90347.78;4939248;28;20033;-85
2021/05/12 03:35:29;;;;;;;0.13;0.00;;;;;;;4.71;84.07;90345.97;4955558;28;20033;-86
2021/05/12 03:37:56;;;;;;;0.17;0.10;;;;;;;4.72;83.59;90341.56;4955192;28;20051;-86
2021/05/12 03:40:21;;;;;;;0.03;0.03;;;;;;;4.70;83.39;90341.88;4986858;28;20515;-85
2021/05/12 03:42:47;;;;;;;0.28;0.10;;;;;;;4.69;83.63;90344.75;4987519;28;20034;-85
2021/05/12 03:45:12;;;;;;;0.50;0.20;;;;;;;4.58;83.93;90346.88;4987596;28;20464;-86
2021/05/12 03:47:37;;;;;;;0.10;0.10;;;;;;;4.47;84.41;90348.25;4971446;28;20019;-85
2021/05/12 03:50:04;;;;;;;0.73;0.20;;;;;;;4.55;83.52;90339.75;4987374;28;20621;-85
2021/05/12 03:52:29;;;;;;;0.60;0.28;;;;;;;4.52;83.88;90346.28;4970987;28;20054;-85
2021/05/12 03:54:55;;;;;;;1.35;0.35;;;;;;;4.44;84.56;90344.47;4971055;28;20027;-85
2021/05/12 03:57:20;;;;;;;0.77;0.30;;;;;;;4.51;83.76;90338.84;4970896;28;20045;-86
2021/05/12 03:59:45;;;;;;;0.30;0.20;;;;;;;4.46;84.30;90342.34;4971051;28;20029;-86
2021/05/12 04:02:11;;;;;;;1.00;0.30;;;;;;;4.57;84.21;90342.78;4987113;28;20050;-85
2021/05/12 04:04:36;;;;;;;0.88;0.35;;;;;;;4.29;85.13;90339.75;4987016;28;20057;-86
2021/05/12 04:07:02;;;;;;;1.42;0.40;;;;;;;4.38;84.91;90342.31;4987301;28;20027;-87
2021/05/12 04:09:29;;;;;;;1.90;0.40;;;;;;;4.44;84.20;90341.13;4987141;28;20022;-86
2021/05/12 04:11:54;;;;;;;3.05;0.70;;;;;;;4.41;84.55;90339.16;4971715;28;20443;-87
2021/05/12 04:14:19;;;;;;;1.85;0.38;;;;;;;4.56;83.86;90349.03;4967603;28;20081;-86
2021/05/12 04:16:47;;;;;;;0.70;0.50;;;;;;;4.43;83.45;90342.19;4952736;29;20027;-86
2021/05/12 04:19:12;;;;;;;1.13;0.45;;;;;;;4.38;83.67;90348.28;4952814;28;20023;-86
2021/05/12 04:21:38;;;;;;;2.75;0.50;;;;;;;4.48;84.11;90354.94;4952224;28;20030;-86
2021/05/12 04:24:04;;;;;;;2.78;0.70;;;;;;;4.61;82.84;90348.84;4955378;29;20444;-86
2021/05/12 04:26:30;;;;;;;1.60;0.73;;;;;;;4.69;83.10;90340.34;4955413;29;20042;-85
2021/05/12 04:28:55;;;;;;;2.00;0.60;;;;;;;4.59;83.11;90340.66;4956648;28;20027;-86
2021/05/12 04:31:20;;;;;;;2.10;0.50;;;;;;;4.71;82.14;90345.22;4938942;29;20030;-86
2021/05/12 04:33:46;;;;;;;1.88;0.80;;;;;;;4.54;83.88;90357.06;4939485;29;20508;-86
2021/05/12 04:36:11;;;;;;;1.17;0.52;;;;;;;4.48;83.33;90354.94;4939085;29;20038;-86
2021/05/12 04:38:37;;;;;;;3.78;0.75;;;;;;;4.55;83.44;90355.22;4956329;29;20040;-88
2021/05/12 04:41:02;;;;;;;4.38;1.15;;;;;;;4.59;83.85;90361.28;4955939;29;20031;-85
2021/05/12 04:43:27;;;;;;;2.33;0.90;;;;;;;4.56;83.26;90359.34;4954715;28;20035;-86
2021/05/12 04:45:53;;;;;;;2.55;0.70;;;;;;;4.59;83.79;90363.88;4955087;29;20066;-87
2021/05/12 04:48:18;;;;;;;1.65;0.80;;;;;;;4.70;82.92;90359.94;4938878;29;20062;-86
2021/05/12 04:50:44;;;;;;;3.70;1.45;;;;;;;4.62;84.08;90359.94;4954819;29;20421;-86
2021/05/12 04:53:09;;;;;;;3.72;0.70;;;;;;;4.68;83.59;90344.00;4938790;29;20023;-86
2021/05/12 04:55:35;;;;;;;3.47;0.77;;;;;;;4.72;84.77;90360.38;4939019;29;20034;-86
2021/05/12 04:58:00;;;;;;;4.18;1.05;;;;;;;4.75;83.38;90356.44;4956001;29;20030;-85
2021/05/12 05:00:26;;;;;;;2.50;0.82;;;;;;;4.70;82.75;90357.38;4954566;29;20545;-86
2021/05/12 05:02:52;;;;;;;4.35;1.23;;;;;;;4.67;82.52;90357.22;4955132;28;20034;-86
2021/05/12 05:05:18;;;;;;;2.90;0.90;;;;;;;4.77;81.44;90360.25;4954864;29;20023;-87
2021/05/12 05:07:44;;;;;;;4.32;1.50;;;;;;;4.83;82.41;90358.25;4956071;28;20027;-86
2021/05/12 05:10:09;;;;;;;2.30;0.90;;;;;;;4.90;81.64;90358.53;4922550;29;20038;-87
2021/05/12 05:12:35;;;;;;;3.13;1.10;;;;;;;4.96;80.75;90359.16;4959183;28;20034;-86
2021/05/12 05:15:00;;;;;;;3.33;1.08;;;;;;;4.73;83.06;90351.56;4975126;28;20023;-86
2021/05/12 05:17:27;;;;;;;2.65;0.82;;;;;;;4.76;82.60;90363.88;4957855;28;20551;-86
2021/05/12 05:19:52;;;;;;;4.22;1.00;;;;;;;4.76;82.32;90356.13;4973719;28;20400;-86
2021/05/12 05:22:19;;;;;;;3.67;1.08;;;;;;;4.87;81.70;90361.72;4940453;28;20023;-86
2021/05/12 05:24:44;;;;;;;2.58;1.00;;;;;;;4.78;81.95;90358.41;4957951;28;20035;-86
2021/05/12 05:27:10;;;;;;;5.35;1.30;;;;;;;4.78;82.62;90364.34;4973914;28;20081;-86
2021/05/12 05:29:36;;;;;;;1.83;0.80;;;;;;;4.89;81.64;90371.78;4941882;28;20014;-86
2021/05/12 05:32:01;;;;;;;6.47;1.40;;;;;;;5.00;81.04;90372.97;4941333;28;20030;-86
2021/05/12 05:34:27;;;;;;;2.45;0.90;;;;;;;5.08;80.58;90379.16;4973861;28;20023;-86
2021/05/12 05:36:52;;;;;;;2.10;0.82;;;;;;;5.06;80.93;90384.66;4973550;28;20018;-86
2021/05/12 05:39:17;;;;;;;2.65;0.90;;;;;;;5.02;81.66;90374.19;4974101;28;20027;-86
2021/05/12 05:41:43;;;;;;;2.22;1.00;;;;;;;5.02;81.61;90383.75;4957162;28;20408;-85
2021/05/12 05:44:08;;;;;;;4.47;1.30;;;;;;;5.05;81.38;90385.69;4974902;28;20057;-85
2021/05/12 05:46:34;;;;;;;2.35;0.95;;;;;;;5.12;81.82;90383.41;4957902;28;20388;-86
2021/05/12 05:48:59;;;;;;;2.38;0.70;;;;;;;5.22;81.40;90383.09;4957557;28;20026;-86
2021/05/12 05:51:25;;;;;;;2.10;0.70;;;;;;;5.19;81.65;90386.28;4974487;28;20027;-85
2021/05/12 05:53:50;;;;;;;3.20;0.90;;;;;;;5.19;82.17;90385.53;4941772;28;20031;-86
2021/05/12 05:56:16;;;;;;;3.83;1.20;;;;;;;5.16;82.30;90388.72;4969324;28;20034;-86
2021/05/12 05:58:41;;;;;;;8.77;1.10;;;;;;;5.14;81.89;90386.47;4968999;28;20028;-84
2021/05/12 06:01:07;;;;;;;4.38;1.27;;;;;;;5.27;81.20;90385.53;4962341;28;20019;-86
2021/05/12 06:03:32;;;;;;;1.55;0.80;;;;;;;5.20;82.07;90380.06;4956725;28;20437;-86
2021/05/12 06:05:58;;;;;;;3.60;0.93;;;;;;;5.24;81.77;90386.13;4973113;28;20027;-86
2021/05/12 06:08:24;;;;;;;2.15;1.02;;;;;;;5.37;80.01;90387.03;4989325;28;20485;-86
2021/05/12 06:10:50;;;;;;;3.85;1.17;;;;;;;5.37;80.68;90383.66;4989067;28;20031;-85
2021/05/12 06:13:15;;;;;;;2.40;1.00;;;;;;;5.27;80.79;90385.53;4957003;28;20081;-86
2021/05/12 06:15:41;;;;;;;2.60;1.00;;;;;;;5.32;82.89;90394.16;4972611;28;20023;-84
2021/05/12 06:18:07;;;;;;;2.72;1.10;;;;;;;5.45;81.24;90395.81;4973420;28;20078;-86
2021/05/12 06:20:32;;;;;;;3.53;1.10;;;;;;;5.53;81.07;90402.78;4956434;28;20033;-85
2021/05/12 06:23:02;;;;;;;3.22;1.00;;;;;;;5.44;80.78;90394.28;4956386;28;20436;-86
2021/05/12 06:25:27;;;;;;;2.55;0.98;;;;;;;5.59;80.15;90398.97;4977083;28;20023;-86
2021/05/12 06:27:53;;;;;;;2.13;0.80;;;;;;;5.58;79.82;90394.84;4969321;28;20441;-86
2021/05/12 06:30:18;;;;;;;5.18;1.27;;;;;;;5.49;80.17;90394.88;4960096;28;20015;-86
2021/05/12 06:32:43;;;;;;;1.75;0.85;;;;;;;5.55;80.69;90394.69;4988563;28;20054;-86
2021/05/12 06:35:09;;;;;;;2.00;0.85;;;;;;;5.65;81.06;90394.38;4972806;28;20504;-87
2021/05/12 06:37:35;;;;;;;4.55;1.10;;;;;;;5.67;79.93;90394.81;4956089;28;20022;-86
2021/05/12 06:40:00;;;;;;;2.47;1.00;;;;;;;5.71;81.43;90396.47;4972093;28;20492;-84
2021/05/12 06:42:25;;;;;;;3.10;0.90;;;;;;;5.67;79.99;90395.56;4973272;28;20038;-86
2021/05/12 06:44:51;;;;;;;2.38;1.08;;;;;;;5.87;79.71;90395.97;4972483;28;20027;-86
2021/05/12 06:47:16;;;;;;;4.20;1.15;;;;;;;5.92;78.11;90393.19;4988890;28;20370;-85
2021/05/12 06:49:42;;;;;;;3.33;1.00;;;;;;;5.95;79.39;90392.59;4973391;28;20026;-86
2021/05/12 06:52:07;;;;;;;1.35;0.70;;;;;;;5.96;78.29;90394.13;4955382;28;20033;-85
2021/05/12 06:54:32;;;;;;;3.65;0.90;;;;;;;5.87;79.36;90395.97;4971986;28;20026;-86
2021/05/12 06:56:58;;;;;;;5.05;1.30;;;;;;;5.95;79.09;90393.38;4955819;28;20046;-86
2021/05/12 06:59:23;;;;;;;3.55;1.08;;;;;;;6.07;78.38;90397.84;4972000;28;20034;-87
2021/05/12 07:01:49;;;;;;;5.80;1.60;;;;;;;6.10;78.19;90399.06;4972218;28;20501;-86
2021/05/12 07:04:15;;;;;;;2.88;0.90;;;;;;;6.23;79.02;90404.03;4955879;28;20029;-86
2021/05/12 07:06:40;;;;;;;3.13;1.10;;;;;;;6.42;77.48;90395.06;4971363;28;20057;-86
2021/05/12 07:09:06;;;;;;;3.50;1.00;;;;;;;6.23;76.52;90398.09;4971860;28;20381;-86
2021/05/12 07:11:31;;;;;;;2.60;1.17;;;;;;;6.32;79.36;90400.63;4973056;28;20031;-86
2021/05/12 07:13:57;;;;;;;4.32;1.20;;;;;;;6.29;79.17;90399.44;4955607;28;20492;-86
2021/05/12 07:16:22;;;;;;;3.33;1.10;;;;;;;6.31;77.32;90399.88;4974402;28;20110;-86
2021/05/12 07:18:48;;;;;;;3.88;0.90;;;;;;;6.26;78.01;90396.72;4971346;28;20023;-86
2021/05/12 07:21:13;;;;;;;2.97;0.90;;;;;;;6.09;77.82;90393.16;4987601;28;20093;-87
2021/05/12 07:23:42;;;;;;;3.58;1.00;;;;;;;6.48;78.60;90399.00;4969217;28;20093;-86
2021/05/12 07:26:07;;;;;;;2.88;0.85;;;;;;;6.63;78.35;90388.06;4969693;28;20027;-86
2021/05/12 07:28:33;;;;;;;4.90;1.05;;;;;;;6.69;75.36;90379.06;4944371;28;20093;-86
2021/05/12 07:30:58;;;;;;;8.25;1.33;;;;;;;6.73;77.32;90375.84;4970665;28;20030;-87
2021/05/12 07:33:24;;;;;;;4.55;1.10;;;;;;;6.54;73.55;90371.88;4972509;28;20093;-86
2021/05/12 07:35:49;;;;;;;2.72;0.90;;;;;;;6.61;76.03;90376.53;4971141;28;20093;-86
2021/05/12 07:38:14;;;;;;;4.18;0.93;;;;;;;6.94;76.14;90369.56;4987581;28;20034;-86
2021/05/12 07:40:40;;;;;;;6.68;1.50;;;;;;;7.08;75.04;90374.47;4970791;28;20015;-85
2021/05/12 07:43:08;;;;;;;2.33;0.98;;;;;;;7.23;73.96;90361.97;4980643;23;20513;-88
2021/05/12 07:45:36;;;;;;;5.00;1.00;;;;;;;7.09;74.29;90360.41;4921459;29;20497;-87
2021/05/12 07:48:02;;;;;;;2.83;0.82;;;;;;;7.03;73.93;90371.31;4921196;29;20023;-86
2021/05/12 07:50:27;;;;;;;7.75;1.10;;;;;;;6.84;76.02;90369.19;4936712;29;20034;-87
2021/05/12 07:52:53;;;;;;;6.20;1.10;;;;;;;7.05;73.54;90359.53;4922745;29;20401;-86
2021/05/12 07:55:18;;;;;;;2.78;1.10;;;;;;;7.22;73.24;90356.03;4920303;29;20035;-86
2021/05/12 07:57:43;;;;;;;3.42;1.15;;;;;;;7.45;73.17;90361.59;4919948;29;20029;-86
2021/05/12 08:00:10;;;;;;;4.20;1.00;;;;;;;7.50;71.92;90358.03;4952138;29;20697;-87
2021/05/12 08:02:35;;;;;;;6.75;1.50;;;;;;;7.35;72.28;90354.22;4936335;29;20027;-87
2021/05/12 08:05:01;;;;;;;1.65;0.80;;;;;;;7.57;72.93;90348.66;4936107;29;20034;-86
2021/05/12 08:07:26;;;;;;;2.83;0.90;;;;;;;7.92;71.82;90353.44;4935891;29;20128;-87
2021/05/12 08:09:52;;;;;;;4.22;0.85;;;;;;;7.90;68.81;90340.75;4952341;29;20023;-86
2021/05/12 08:12:17;;;;;;;4.13;0.98;;;;;;;8.00;69.59;90341.41;4951859;28;20030;-86
2021/05/12 08:14:42;;;;;;;2.17;0.95;;;;;;;7.97;67.69;90344.66;4936100;29;20500;-86
2021/05/12 08:17:08;;;;;;;3.00;0.80;;;;;;;7.93;68.21;90349.75;4936334;29;20038;-87
2021/05/12 08:19:34;;;;;;;2.97;0.80;;;;;;;7.87;69.37;90340.66;4935804;29;20027;-86
2021/05/12 08:22:03;;;;;;;3.53;0.93;;;;;;;7.64;67.52;90342.94;4935744;29;20053;-87
2021/05/12 08:24:29;;;;;;;2.53;0.80;;;;;;;7.54;70.08;90338.16;4936095;29;20034;-86
2021/05/12 08:26:54;;;;;;;2.03;0.85;;;;;;;7.72;71.82;90346.50;4952037;29;20023;-86
2021/05/12 08:29:20;;;;;;;3.05;0.93;;;;;;;7.66;69.27;90344.09;4936097;29;20085;-86
2021/05/12 08:31:46;;;;;;;3.30;0.88;;;;;;;7.77;69.45;90339.25;4967857;28;20024;-86
2021/05/12 08:34:11;;;;;;;5.28;1.10;;;;;;;7.69;67.65;90334.19;4951932;29;20426;-86
2021/05/12 08:36:37;;;;;;;2.28;0.90;;;;;;;7.71;67.56;90345.00;4936150;29;20031;-87
2021/05/12 08:39:04;;;;;;;3.15;0.95;;;;;;;7.81;68.67;90344.53;4952097;29;20023;-87
2021/05/12 08:41:32;;;;;;;4.15;0.80;;;;;;;7.73;66.77;90346.16;4951990;29;20035;-87
2021/05/12 08:43:58;;;;;;;5.03;0.90;;;;;;;7.81;66.66;90339.34;4951748;28;20544;-86
2021/05/12 08:46:23;;;;;;;3.95;0.90;;;;;;;7.76;67.93;90339.59;4936078;29;20031;-86
2021/05/12 08:48:49;;;;;;;3.75;1.20;;;;;;;7.63;67.20;90334.41;4952021;29;20027;-86
2021/05/12 08:51:14;;;;;;;3.35;1.27;;;;;;;7.89;65.93;90333.31;4951741;29;20504;-87
2021/05/12 08:53:41;;;;;;;3.20;1.00;;;;;;;7.97;68.46;90337.63;4951992;29;20042;-86
2021/05/12 08:56:06;;;;;;;3.65;0.70;;;;;;;8.11;68.45;90329.50;4936081;29;20035;-87
2021/05/12 08:58:32;;;;;;;3.42;1.15;;;;;;;8.09;68.10;90332.44;4935934;29;20615;-86
2021/05/12 09:00:58;;;;;;;3.58;1.05;;;;;;;8.39;69.89;90334.81;4962326;29;20122;-86
2021/05/12 09:03:26;;;;;;;3.17;1.00;;;;;;;8.68;68.88;90335.59;4964411;28;20047;-87
2021/05/12 09:05:51;;;;;;;4.15;1.23;;;;;;;8.68;70.08;90336.34;4936616;29;20086;-86
2021/05/12 09:08:17;;;;;;;4.35;1.00;;;;;;;8.94;69.72;90328.16;4969627;28;20035;-86
2021/05/12 09:10:42;;;;;;;4.25;0.93;;;;;;;8.82;63.66;90335.97;4940388;29;20370;-86
2021/05/12 09:13:08;;;;;;;2.45;1.00;;;;;;;8.68;63.94;90335.59;4931987;29;20110;-86
2021/05/12 09:15:34;;;;;;;2.55;0.85;;;;;;;8.65;65.20;90325.84;4936227;29;20038;-86
2021/05/12 09:18:04;;;;;;;1.42;0.75;;;;;;;8.67;65.27;90321.09;4935785;29;20062;-86
2021/05/12 09:20:32;;;;;;;3.22;0.80;;;;;;;8.99;65.98;90319.34;4919548;29;20047;-87
2021/05/12 09:23:00;;;;;;;3.67;1.02;;;;;;;8.97;64.61;90330.06;4935599;29;20055;-87
2021/05/12 09:25:30;;;;;;;5.72;0.90;;;;;;;8.98;64.10;90321.19;4936004;29;20032;-87
2021/05/12 09:28:18;;;;;;;3.40;0.82;;;;;;;8.81;65.74;90326.69;4935885;29;20032;-86
2021/05/12 09:30:45;;;;;;;5.38;1.00;;;;;;;8.77;66.26;90328.44;4935379;29;20034;-86
2021/05/12 09:33:23;;;;;;;4.72;1.13;;;;;;;8.52;62.73;90323.31;4945640;28;20082;-85
2021/05/12 09:35:49;;;;;;;2.13;0.77;;;;;;;8.67;63.90;90311.47;4935491;29;20573;-86
2021/05/12 09:38:22;;;;;;;1.38;0.77;;;;;;;9.07;62.21;90316.59;4919970;29;20035;-86
2021/05/12 09:41:05;;;;;;;2.85;0.70;;;;;;;9.09;58.41;90322.22;4919198;29;20016;-86
2021/05/12 09:43:31;;;;;;;1.70;0.73;;;;;;;8.98;59.60;90321.19;4950949;28;20040;-86
2021/05/12 09:46:19;;;;;;;5.35;0.95;;;;;;;9.07;62.75;90315.84;4935579;29;20020;-86
2021/05/12 09:48:59;;;;;;;3.65;0.52;;;;;;;9.37;59.31;90315.47;4935668;29;20126;-86
2021/05/12 09:51:28;;;;;;;3.00;0.65;;;;;;;9.40;60.28;90310.38;4934867;29;20028;-86
2021/05/12 09:54:00;;;;;;;2.65;0.77;;;;;;;9.27;57.34;90308.91;4951811;28;20027;-86
2021/05/12 09:57:00;;;;;;;2.75;0.70;;;;;;;9.19;61.41;90312.44;4935441;29;20402;-86
2021/05/12 09:59:27;;;;;;;3.38;0.77;;;;;;;9.47;60.81;90307.94;4899672;29;20042;-86
2021/05/12 10:01:54;;;;;;;2.65;0.80;;;;;;;9.28;60.23;90313.03;4952185;29;20028;-86
2021/05/12 10:04:34;;;;;;;4.38;1.30;;;;;;;9.34;59.46;90307.25;4934907;29;20031;-86
2021/05/12 10:07:01;;;;;;;3.63;0.70;;;;;;;9.18;61.16;90308.31;4919282;29;20037;-87
2021/05/12 10:09:28;;;;;;;3.63;0.80;;;;;;;9.36;62.07;90312.09;4940078;29;20098;-86
2021/05/12 10:12:03;;;;;;;3.60;0.88;;;;;;;9.56;58.38;90305.16;4953950;29;20623;-86
2021/05/12 10:14:29;;;;;;;4.03;0.77;;;;;;;9.71;57.94;90301.78;4969515;28;20489;-86
2021/05/12 10:16:55;;;;;;;1.85;0.60;;;;;;;9.65;58.18;90303.16;4938222;29;20058;-86
2021/05/12 10:19:21;;;;;;;2.97;0.80;;;;;;;9.73;55.49;90293.66;4953469;28;20027;-86
2021/05/12 10:21:47;;;;;;;3.42;0.57;;;;;;;9.60;55.19;90292.22;4937164;29;20121;-86
2021/05/12 10:24:12;;;;;;;5.25;0.70;;;;;;;9.40;54.61;90294.75;4937690;29;20082;-86
2021/05/12 10:26:40;;;;;;;2.95;0.65;;;;;;;9.70;54.21;90291.72;4937711;29;20114;-86
2021/05/12 10:29:05;;;;;;;3.53;0.70;;;;;;;9.62;58.75;90290.06;4937584;29;20085;-87
2021/05/12 10:31:31;;;;;;;2.30;0.60;;;;;;;10.26;59.74;90286.28;4952969;28;20023;-87
2021/05/12 10:33:57;;;;;;;2.78;0.63;;;;;;;10.82;56.09;90290.38;4937567;29;20536;-86
2021/05/12 10:36:24;;;;;;;3.88;0.57;;;;;;;10.99;55.62;90280.28;4953460;29;20042;-87
2021/05/12 10:38:50;;;;;;;2.55;0.50;;;;;;;10.33;51.71;90280.47;4953508;28;20023;-86
2021/05/12 10:41:34;;;;;;;3.75;0.55;;;;;;;10.34;51.90;90280.13;4953458;29;20509;-86
2021/05/12 10:43:59;;;;;;;1.90;0.40;;;;;;;10.42;51.17;90284.38;4953070;29;20035;-86
2021/05/12 10:46:29;;;;;;;2.67;0.85;;;;;;;10.50;52.56;90283.44;4953352;29;20042;-86
2021/05/12 10:48:56;;;;;;;3.83;0.80;;;;;;;10.63;59.57;90271.03;4953414;29;20021;-86
2021/05/12 10:51:25;;;;;;;2.10;0.73;;;;;;;10.65;59.92;90279.25;4953467;29;20051;-85
2021/05/12 10:53:54;;;;;;;3.88;0.80;;;;;;;10.48;58.72;90280.41;4953255;29;20038;-86
2021/05/12 10:56:21;;;;;;;4.38;0.77;;;;;;;10.27;58.49;90290.41;4937064;29;20031;-86
2021/05/12 10:58:47;;;;;;;2.45;1.15;;;;;;;9.87;57.42;90283.56;4953002;29;20031;-86
2021/05/12 11:01:13;;;;;;;4.50;1.10;;;;;;;9.34;58.77;90273.44;4952683;29;20560;-86
2021/05/12 11:03:50;;;;;;;5.05;0.90;;;;;;;9.27;59.93;90282.91;4953047;28;20102;-86
2021/05/12 11:06:23;;;;;;;1.88;0.95;;;;;;;9.12;60.94;90273.25;4952767;29;20027;-86
2021/05/12 11:09:10;;;;;;;1.77;0.70;;;;;;;8.59;61.63;90263.78;4937167;29;20537;-86
2021/05/12 11:11:38;;;;;;;3.63;0.90;;;;;;;8.66;62.65;90270.22;4937715;29;20037;-85
2021/05/12 11:14:28;;;;;;;4.00;0.80;;;;;;;8.68;61.49;90283.63;4953053;28;20082;-85
2021/05/12 11:17:13;;;;;;;4.50;0.65;;;;;;;8.58;60.39;90277.81;4968817;28;20035;-86
2021/05/12 11:19:48;;;;;;;5.93;0.70;;;;;;;8.65;62.00;90273.91;4968913;28;20027;-86
2021/05/12 11:32:35;;;;;;;3.58;0.73;;;;;;;8.58;62.94;90270.03;4951560;29;20038;-85
2021/05/12 11:35:01;;;;;;;1.60;0.63;;;;;;;8.55;63.28;90260.31;4936363;29;20089;-86
2021/05/12 11:37:27;;;;;;;1.65;0.60;;;;;;;8.57;63.10;90273.72;4936828;29;20030;-86
2021/05/12 11:39:54;;;;;;;1.98;0.70;;;;;;;8.75;62.76;90268.25;4936458;29;20481;-86
2021/05/12 11:42:21;;;;;;;1.98;0.52;;;;;;;8.75;62.89;90268.25;4936933;28;20035;-86
2021/05/12 11:44:47;;;;;;;4.30;1.00;;;;;;;8.63;62.52;90265.72;4929705;29;20062;-86
2021/05/12 11:47:13;;;;;;;5.32;1.20;;;;;;;8.64;62.85;90267.22;4936807;29;20030;-86
2021/05/12 11:49:41;;;;;;;2.10;0.52;;;;;;;8.67;62.41;90258.75;4910603;29;20074;-86